Time;durP1;ratioP1;P1;durP2;ratioP2;P2;SDS_P1;SDS_P2;PMS_P1;PMS_P2;Temp;Humidity;BMP_temperature;BMP_pressure;BME280_temperature;BME280_humidity;BME280_pressure;Samples;Min_cycle;Max_cycle;Signal;HPM_P1;HPM_P2
2021/07/17 00:01:35;;;;;;;11.25;9.43;;;24.00;54.40;;;;;;5060708;28;20180;-83
2021/07/17 00:04:03;;;;;;;11.25;9.50;;;24.00;54.40;;;;;;5077437;28;20187;-84
2021/07/17 00:06:30;;;;;;;11.55;9.82;;;24.00;54.50;;;;;;5060302;28;20310;-84
2021/07/17 00:08:57;;;;;;;12.27;9.82;;;23.90;54.40;;;;;;5093728;27;20237;-84
2021/07/17 00:11:24;;;;;;;10.93;9.55;;;24.00;54.40;;;;;;5076830;28;20635;-83
2021/07/17 00:13:51;;;;;;;11.52;9.70;;;24.00;54.50;;;;;;5077196;28;20512;-84
2021/07/17 00:16:18;;;;;;;11.05;9.18;;;24.00;54.30;;;;;;5060690;28;20184;-83
2021/07/17 00:18:47;;;;;;;11.63;9.77;;;24.00;54.30;;;;;;5094025;28;20636;-81
2021/07/17 00:21:13;;;;;;;11.40;9.55;;;24.00;54.30;;;;;;5077937;28;20207;-83
2021/07/17 00:23:39;;;;;;;11.85;9.50;;;24.00;55.10;;;;;;5077596;28;20184;-82
2021/07/17 00:26:04;;;;;;;11.73;9.38;;;23.90;54.30;;;;;;5094773;28;20153;-83
2021/07/17 00:28:31;;;;;;;12.15;10.05;;;24.00;54.40;;;;;;5095827;28;20202;-83
2021/07/17 00:30:57;;;;;;;11.43;9.68;;;24.00;54.30;;;;;;5094590;28;20231;-83
2021/07/17 00:33:23;;;;;;;10.82;9.10;;;24.00;54.30;;;;;;5094426;28;20241;-83
2021/07/17 00:35:54;;;;;;;12.07;10.18;;;23.90;54.40;;;;;;5094308;28;20180;-81
2021/07/17 00:38:20;;;;;;;11.35;9.55;;;24.00;54.40;;;;;;5076699;28;20738;-81
2021/07/17 00:40:46;;;;;;;11.23;9.90;;;24.00;54.50;;;;;;5094461;28;20180;-81
2021/07/17 00:43:12;;;;;;;12.70;10.32;;;24.00;54.50;;;;;;5094289;28;20187;-84
2021/07/17 00:45:41;;;;;;;11.60;9.65;;;24.00;54.60;;;;;;5128373;27;20180;-83
2021/07/17 00:48:08;;;;;;;12.02;10.23;;;23.90;54.40;;;;;;5093990;28;20189;-84
2021/07/17 00:50:36;;;;;;;12.75;10.10;;;23.90;54.50;;;;;;5076674;28;20263;-83
2021/07/17 00:53:03;;;;;;;11.68;9.55;;;24.00;54.50;;;;;;5076528;28;20184;-84
2021/07/17 00:55:31;;;;;;;11.30;9.25;;;23.90;54.30;;;;;;5043182;28;20176;-83
2021/07/17 00:57:56;;;;;;;10.90;8.98;;;23.90;54.50;;;;;;5043023;28;20212;-84
2021/07/17 01:00:23;;;;;;;11.70;10.02;;;23.90;54.50;;;;;;5093789;28;20227;-85
2021/07/17 01:02:59;;;;;;;11.52;9.35;;;23.90;54.60;;;;;;5076202;28;20176;-82
2021/07/17 01:05:29;;;;;;;11.52;9.73;;;23.90;54.60;;;;;;5076243;28;20260;-83
2021/07/17 01:07:54;;;;;;;12.20;9.85;;;23.90;54.50;;;;;;5076223;28;20219;-82
2021/07/17 01:10:23;;;;;;;11.88;10.10;;;23.90;54.60;;;;;;5077338;28;20169;-83
2021/07/17 01:12:49;;;;;;;11.45;9.52;;;23.90;54.70;;;;;;5110348;28;20572;-82
2021/07/17 01:15:15;;;;;;;12.02;10.05;;;23.90;54.60;;;;;;5093509;28;20184;-83
2021/07/17 01:17:40;;;;;;;12.27;10.15;;;23.90;54.60;;;;;;5094344;28;20222;-82
2021/07/17 01:20:08;;;;;;;11.63;9.55;;;23.90;54.70;;;;;;5110571;28;20160;-83
2021/07/17 01:22:37;;;;;;;11.73;9.40;;;23.90;54.80;;;;;;5093396;28;20149;-81
2021/07/17 01:25:07;;;;;;;12.40;10.30;;;23.90;54.70;;;;;;5110356;28;20587;-82
2021/07/17 01:27:33;;;;;;;11.63;9.95;;;23.90;54.60;;;;;;5093506;28;20678;-82
2021/07/17 01:29:58;;;;;;;12.32;10.00;;;23.90;54.70;;;;;;5077006;28;20169;-82
2021/07/17 01:32:24;;;;;;;12.82;9.88;;;23.90;54.60;;;;;;5110676;28;20481;-83
2021/07/17 01:34:50;;;;;;;11.82;9.45;;;23.90;54.60;;;;;;5077041;28;20169;-82
2021/07/17 01:37:16;;;;;;;11.98;9.65;;;23.90;54.70;;;;;;5093177;28;20166;-83
2021/07/17 01:39:42;;;;;;;13.07;10.32;;;23.90;54.80;;;;;;5092849;28;20160;-82
2021/07/17 01:42:09;;;;;;;11.98;9.98;;;23.80;54.70;;;;;;5093051;28;20531;-82
2021/07/17 01:44:51;;;;;;;12.32;10.00;;;23.90;54.80;;;;;;5093197;28;20149;-82
2021/07/17 01:47:19;;;;;;;12.05;9.88;;;23.90;54.90;;;;;;5058762;28;20642;-82
2021/07/17 01:49:46;;;;;;;11.73;9.60;;;23.90;54.80;;;;;;5092250;28;20256;-82
2021/07/17 01:52:13;;;;;;;12.60;10.25;;;23.90;54.80;;;;;;5075499;28;20172;-82
2021/07/17 01:54:39;;;;;;;12.85;10.18;;;23.90;54.90;;;;;;5058284;28;20212;-84
2021/07/17 01:57:05;;;;;;;12.50;10.00;;;23.90;54.90;;;;;;5093281;28;20218;-81
2021/07/17 01:59:39;;;;;;;12.43;10.20;;;23.80;54.80;;;;;;5093107;28;20231;-84
2021/07/17 02:02:07;;;;;;;12.48;10.07;;;23.90;54.90;;;;;;5092677;28;20253;-82
2021/07/17 02:04:32;;;;;;;11.07;9.52;;;23.80;54.90;;;;;;5092685;28;20313;-84
2021/07/17 02:06:58;;;;;;;11.85;9.80;;;23.90;54.90;;;;;;5092891;28;20703;-83
2021/07/17 02:09:24;;;;;;;13.15;10.35;;;23.80;54.90;;;;;;5075913;28;20628;-83
2021/07/17 02:11:49;;;;;;;12.27;10.02;;;23.80;55.00;;;;;;5092916;28;20160;-84
2021/07/17 02:14:15;;;;;;;11.95;10.02;;;23.80;55.00;;;;;;5092100;28;20255;-82
2021/07/17 02:16:41;;;;;;;12.85;10.50;;;23.90;55.00;;;;;;5109500;28;20202;-83
2021/07/17 02:19:19;;;;;;;12.02;9.88;;;23.80;55.00;;;;;;5075684;28;20165;-81
2021/07/17 02:21:49;;;;;;;12.15;9.95;;;23.80;55.00;;;;;;5075460;28;20203;-84
2021/07/17 02:24:17;;;;;;;12.82;10.07;;;23.80;55.10;;;;;;5075505;28;20172;-83
2021/07/17 02:26:45;;;;;;;11.88;9.88;;;23.80;55.00;;;;;;5058257;28;20204;-82
2021/07/17 02:29:13;;;;;;;13.05;10.43;;;23.70;55.00;;;;;;5074717;28;20195;-83
2021/07/17 02:31:41;;;;;;;12.20;10.50;;;23.80;55.00;;;;;;5075013;28;20176;-81
2021/07/17 02:34:07;;;;;;;13.20;10.75;;;23.80;55.00;;;;;;5058137;28;20215;-84
2021/07/17 02:36:36;;;;;;;11.80;9.73;;;23.80;55.00;;;;;;5109251;28;20524;-83
2021/07/17 02:39:04;;;;;;;12.95;10.30;;;23.80;55.10;;;;;;5075981;28;20603;-84
2021/07/17 02:41:30;;;;;;;12.00;9.88;;;23.80;55.10;;;;;;5109452;28;20156;-83
2021/07/17 02:43:57;;;;;;;11.90;10.15;;;23.80;55.00;;;;;;5092257;28;20588;-83
2021/07/17 02:46:22;;;;;;;12.07;9.85;;;23.80;55.10;;;;;;5075035;28;20206;-83
2021/07/17 02:48:48;;;;;;;11.60;9.80;;;23.80;55.10;;;;;;5092059;28;20153;-83
2021/07/17 02:51:18;;;;;;;11.65;10.00;;;23.80;55.10;;;;;;5076926;28;20196;-82
2021/07/17 02:53:48;;;;;;;12.35;10.00;;;23.80;55.10;;;;;;5078621;28;20215;-83
2021/07/17 02:56:16;;;;;;;11.63;9.63;;;23.80;55.10;;;;;;5062140;28;20190;-82
2021/07/17 02:58:42;;;;;;;12.55;10.18;;;23.80;55.10;;;;;;5078272;28;20224;-83
2021/07/17 03:01:08;;;;;;;11.00;9.63;;;23.80;55.20;;;;;;5113339;28;20173;-84
2021/07/17 03:03:33;;;;;;;11.65;9.93;;;23.70;55.10;;;;;;5096349;28;20160;-82
2021/07/17 03:05:59;;;;;;;11.98;9.98;;;23.80;55.20;;;;;;5079251;28;20165;-82
2021/07/17 03:08:25;;;;;;;12.77;9.85;;;23.80;55.20;;;;;;5095974;28;20220;-84
2021/07/17 03:10:51;;;;;;;12.00;9.82;;;23.80;55.20;;;;;;5095890;28;20182;-83
2021/07/17 03:13:16;;;;;;;11.65;9.93;;;23.80;55.20;;;;;;5095963;28;20152;-82
2021/07/17 03:15:42;;;;;;;11.35;9.40;;;23.80;55.20;;;;;;5078894;28;20173;-82
2021/07/17 03:18:08;;;;;;;12.45;10.02;;;23.80;55.20;;;;;;5095753;28;20526;-84
2021/07/17 03:20:34;;;;;;;12.50;10.30;;;23.80;55.20;;;;;;5095892;28;20168;-82
2021/07/17 03:23:00;;;;;;;12.55;10.38;;;23.80;55.30;;;;;;5095732;28;20172;-81
2021/07/17 03:25:26;;;;;;;12.27;10.32;;;23.80;55.20;;;;;;5112930;28;20153;-83
2021/07/17 03:27:52;;;;;;;12.40;10.20;;;23.80;55.20;;;;;;5095554;28;20208;-81
2021/07/17 03:30:18;;;;;;;12.23;10.07;;;23.80;55.20;;;;;;5078916;28;20203;-84
2021/07/17 03:32:44;;;;;;;11.85;10.27;;;23.70;55.20;;;;;;5096054;28;20214;-83
2021/07/17 03:35:11;;;;;;;12.70;10.50;;;23.80;55.20;;;;;;5096645;28;20149;-84
2021/07/17 03:37:37;;;;;;;12.52;9.82;;;23.80;55.30;;;;;;5096640;28;20638;-81
2021/07/17 03:40:04;;;;;;;12.07;9.95;;;23.80;55.30;;;;;;5095451;28;20149;-82
2021/07/17 03:42:30;;;;;;;13.52;10.45;;;23.80;55.30;;;;;;5095443;28;20669;-84
2021/07/17 03:44:56;;;;;;;12.48;10.48;;;23.80;55.30;;;;;;5095411;28;20152;-83
2021/07/17 03:47:21;;;;;;;11.80;10.18;;;23.80;55.20;;;;;;5095206;28;20235;-81
2021/07/17 03:49:47;;;;;;;13.00;10.57;;;23.80;55.20;;;;;;5095218;28;20164;-83
2021/07/17 03:52:13;;;;;;;13.02;9.90;;;23.70;55.20;;;;;;5095279;28;20245;-83
2021/07/17 03:54:38;;;;;;;13.27;10.50;;;23.70;55.20;;;;;;5095108;28;20710;-84
2021/07/17 03:57:04;;;;;;;11.73;9.68;;;23.80;55.20;;;;;;5078564;28;20200;-83
2021/07/17 03:59:31;;;;;;;12.25;9.35;;;23.80;55.30;;;;;;5094925;28;20228;-80
2021/07/17 04:01:58;;;;;;;11.85;9.52;;;23.80;55.30;;;;;;5094527;28;20536;-81
2021/07/17 04:04:24;;;;;;;12.77;10.60;;;23.80;55.30;;;;;;5095464;28;20219;-81
2021/07/17 04:06:52;;;;;;;11.73;9.65;;;23.80;55.30;;;;;;5112039;28;20605;-83
2021/07/17 04:09:21;;;;;;;12.70;10.25;;;23.70;55.30;;;;;;5060647;28;20180;-83
2021/07/17 04:11:50;;;;;;;12.75;9.88;;;23.80;55.30;;;;;;5077258;28;20226;-81
2021/07/17 04:14:19;;;;;;;11.52;9.93;;;23.80;55.30;;;;;;5060699;28;20665;-81
2021/07/17 04:16:46;;;;;;;12.63;9.75;;;23.80;55.10;;;;;;5077385;28;20682;-84
2021/07/17 04:19:12;;;;;;;12.38;10.43;;;23.80;55.20;;;;;;5094826;28;20145;-83
2021/07/17 04:21:40;;;;;;;13.45;10.57;;;23.80;55.20;;;;;;5077897;28;20165;-81
2021/07/17 04:24:09;;;;;;;12.20;9.93;;;23.80;55.10;;;;;;5077240;28;20520;-82
2021/07/17 04:26:37;;;;;;;11.73;10.00;;;23.80;55.20;;;;;;5076846;28;20212;-83
2021/07/17 04:29:06;;;;;;;11.50;9.88;;;23.90;55.30;;;;;;5077114;28;20666;-82
2021/07/17 04:31:32;;;;;;;12.00;10.27;;;23.80;55.10;;;;;;5060729;28;20188;-83
2021/07/17 04:34:00;;;;;;;12.77;10.30;;;23.90;55.10;;;;;;5096183;28;20149;-81
2021/07/17 04:36:26;;;;;;;12.15;10.20;;;23.80;55.10;;;;;;5094894;28;20157;-83
2021/07/17 04:38:51;;;;;;;13.10;10.40;;;23.90;55.00;;;;;;5077526;28;20164;-83
2021/07/17 04:41:17;;;;;;;11.65;9.63;;;23.90;55.00;;;;;;5077679;28;20152;-84
2021/07/17 04:43:43;;;;;;;13.38;10.30;;;23.90;54.80;;;;;;5077200;28;20194;-82
2021/07/17 04:46:09;;;;;;;12.77;10.27;;;23.90;55.60;;;;;;5094489;28;20163;-83
2021/07/17 04:48:35;;;;;;;12.05;10.15;;;24.00;54.90;;;;;;5094214;28;20196;-81
2021/07/17 04:51:01;;;;;;;12.55;9.93;;;24.00;54.90;;;;;;5077867;28;20157;-84
2021/07/17 04:53:27;;;;;;;13.20;10.38;;;24.00;54.90;;;;;;5094399;28;20266;-83
2021/07/17 04:55:53;;;;;;;12.25;9.73;;;23.90;54.70;;;;;;5094043;28;20157;-83
2021/07/17 04:58:19;;;;;;;12.10;10.07;;;24.00;54.70;;;;;;5077222;28;20290;-81
2021/07/17 05:00:44;;;;;;;12.77;10.02;;;24.00;54.80;;;;;;5094165;28;20150;-81
2021/07/17 05:03:12;;;;;;;12.77;10.30;;;24.00;54.80;;;;;;5077192;28;20172;-83
2021/07/17 05:05:38;;;;;;;11.68;10.05;;;24.00;54.70;;;;;;5094115;28;20153;-82
2021/07/17 05:08:04;;;;;;;10.57;9.02;;;24.00;54.70;;;;;;5095045;28;20188;-81
2021/07/17 05:10:32;;;;;;;12.13;10.15;;;24.00;54.70;;;;;;5077556;28;20153;-83
2021/07/17 05:13:08;;;;;;;12.32;9.85;;;24.00;54.70;;;;;;5059219;28;20692;-83
2021/07/17 05:15:35;;;;;;;12.15;9.90;;;24.00;54.60;;;;;;5077137;28;20718;-83
2021/07/17 05:18:03;;;;;;;11.77;9.82;;;24.00;54.60;;;;;;5060036;28;20229;-81
2021/07/17 05:20:30;;;;;;;11.10;9.25;;;24.10;54.60;;;;;;5042701;28;20234;-82
2021/07/17 05:22:57;;;;;;;12.65;9.93;;;24.10;54.60;;;;;;5075911;28;20242;-82
2021/07/17 05:25:24;;;;;;;11.75;9.57;;;24.10;55.30;;;;;;5075684;28;20257;-84
2021/07/17 05:27:51;;;;;;;11.85;9.48;;;24.10;54.60;;;;;;5092378;27;20246;-81
2021/07/17 05:30:18;;;;;;;12.38;10.18;;;24.10;54.50;;;;;;5059215;28;20176;-81
2021/07/17 05:32:44;;;;;;;11.98;9.85;;;24.10;54.50;;;;;;5059480;28;20185;-82
2021/07/17 05:35:12;;;;;;;11.90;10.00;;;24.20;54.40;;;;;;5042454;28;20230;-82
2021/07/17 05:37:41;;;;;;;12.18;10.20;;;24.30;54.20;;;;;;5093451;28;20163;-81
2021/07/17 05:40:08;;;;;;;11.55;9.90;;;24.30;54.40;;;;;;5059230;28;20232;-83
2021/07/17 05:42:34;;;;;;;13.30;10.48;;;24.30;54.20;;;;;;5093466;28;20619;-81
2021/07/17 05:45:00;;;;;;;12.02;10.10;;;24.20;54.20;;;;;;5093191;28;20145;-84
2021/07/17 05:47:26;;;;;;;13.02;10.30;;;24.30;54.30;;;;;;5093682;28;20333;-81
2021/07/17 05:49:53;;;;;;;12.00;10.00;;;24.30;54.20;;;;;;5076509;28;20588;-85
2021/07/17 05:52:19;;;;;;;12.32;9.82;;;24.20;54.20;;;;;;5110218;28;20144;-82
2021/07/17 05:54:45;;;;;;;10.98;9.38;;;24.30;54.30;;;;;;5093140;28;20236;-84
2021/07/17 05:57:11;;;;;;;13.15;9.98;;;24.30;54.20;;;;;;5093132;28;20161;-83
2021/07/17 05:59:40;;;;;;;11.30;9.63;;;24.30;54.10;;;;;;5092967;28;20567;-83
2021/07/17 06:02:06;;;;;;;11.50;9.85;;;24.30;54.30;;;;;;5058850;28;20181;-81
2021/07/17 06:04:32;;;;;;;13.18;10.05;;;24.40;54.10;;;;;;5093466;28;20161;-83
2021/07/17 06:07:01;;;;;;;11.38;9.20;;;24.30;54.00;;;;;;5075805;28;20200;-82
2021/07/17 06:09:26;;;;;;;12.50;10.57;;;24.40;53.90;;;;;;5058689;28;20192;-81
2021/07/17 06:11:53;;;;;;;11.70;9.65;;;24.40;54.00;;;;;;5093338;28;20153;-82
2021/07/17 06:14:19;;;;;;;12.70;10.02;;;24.40;54.00;;;;;;5075821;28;20161;-81
2021/07/17 06:16:44;;;;;;;10.27;9.02;;;24.40;54.10;;;;;;5092915;28;20183;-84
2021/07/17 06:19:12;;;;;;;11.90;9.32;;;24.30;54.10;;;;;;5093136;28;20149;-82
2021/07/17 06:21:38;;;;;;;12.77;10.30;;;24.40;54.00;;;;;;5075899;28;20207;-81
2021/07/17 06:24:05;;;;;;;11.45;10.05;;;24.40;54.10;;;;;;5109656;28;20629;-83
2021/07/17 06:26:31;;;;;;;12.15;9.63;;;24.40;54.10;;;;;;5109892;28;20179;-82
2021/07/17 06:28:57;;;;;;;12.45;9.77;;;24.40;54.10;;;;;;5092428;28;20172;-81
2021/07/17 06:31:23;;;;;;;12.52;10.15;;;24.40;54.10;;;;;;5075830;28;20531;-84
2021/07/17 06:33:48;;;;;;;11.40;9.50;;;24.50;53.90;;;;;;5075663;28;20160;-82
2021/07/17 06:36:15;;;;;;;11.50;9.70;;;24.50;54.00;;;;;;5092428;28;20175;-82
2021/07/17 06:38:44;;;;;;;11.20;9.32;;;24.50;54.00;;;;;;5075714;28;20172;-82
2021/07/17 06:41:10;;;;;;;11.93;9.73;;;24.50;53.80;;;;;;5058204;28;20176;-83
2021/07/17 06:43:36;;;;;;;12.15;9.98;;;24.50;53.70;;;;;;5092444;28;20152;-84
2021/07/17 06:46:03;;;;;;;11.60;9.52;;;24.50;53.80;;;;;;5075878;28;20168;-84
2021/07/17 06:48:29;;;;;;;12.27;10.27;;;24.60;53.70;;;;;;5075318;28;20204;-81
2021/07/17 06:50:56;;;;;;;12.15;10.00;;;24.60;53.70;;;;;;5109505;28;20176;-82
2021/07/17 06:53:22;;;;;;;11.57;9.52;;;24.60;53.60;;;;;;5092635;28;20664;-81
2021/07/17 06:55:48;;;;;;;11.40;9.60;;;24.70;53.50;;;;;;5075521;28;20169;-82
2021/07/17 06:58:13;;;;;;;10.73;9.38;;;24.70;53.60;;;;;;5092332;28;20216;-81
2021/07/17 07:00:40;;;;;;;12.00;9.70;;;24.60;53.70;;;;;;5075348;28;20156;-83
2021/07/17 07:03:06;;;;;;;12.68;10.55;;;24.70;53.50;;;;;;5092631;28;20232;-82
2021/07/17 07:05:34;;;;;;;12.02;10.60;;;24.70;53.50;;;;;;5094051;28;20199;-83
2021/07/17 07:07:59;;;;;;;11.55;9.60;;;24.60;53.60;;;;;;5110302;28;20274;-84
2021/07/17 07:10:27;;;;;;;11.48;9.55;;;24.60;53.60;;;;;;5076720;28;20238;-82
2021/07/17 07:12:54;;;;;;;11.48;10.18;;;24.60;53.70;;;;;;5058366;28;20298;-85
2021/07/17 07:15:25;;;;;;;12.15;10.00;;;24.60;53.50;;;;;;5058997;28;20176;-82
2021/07/17 07:17:54;;;;;;;10.65;9.20;;;24.70;53.60;;;;;;5059071;28;20223;-84
2021/07/17 07:20:20;;;;;;;12.88;9.90;;;24.80;53.50;;;;;;5074354;28;20183;-81
2021/07/17 07:22:46;;;;;;;14.23;10.40;;;24.70;53.50;;;;;;5091937;28;20163;-81
2021/07/17 07:25:12;;;;;;;14.75;9.90;;;24.70;53.40;;;;;;5092366;28;20161;-84
2021/07/17 07:27:38;;;;;;;12.00;10.30;;;24.80;53.40;;;;;;5091733;28;20184;-81
2021/07/17 07:30:05;;;;;;;12.23;9.98;;;24.70;53.50;;;;;;5080733;28;20218;-80
2021/07/17 07:32:33;;;;;;;11.27;9.77;;;24.60;53.70;;;;;;5111255;28;20165;-79
2021/07/17 07:34:59;;;;;;;11.65;9.90;;;24.60;53.70;;;;;;5099405;28;20157;-84
2021/07/17 07:37:25;;;;;;;11.43;9.73;;;24.60;53.50;;;;;;5081106;28;20579;-81
2021/07/17 07:39:53;;;;;;;11.77;9.90;;;24.70;53.60;;;;;;5099211;28;20179;-81
2021/07/17 07:42:18;;;;;;;11.13;9.63;;;24.70;53.60;;;;;;5086377;28;20218;-82
2021/07/17 07:44:44;;;;;;;12.35;10.40;;;24.80;53.50;;;;;;5080516;28;20161;-81
2021/07/17 07:47:09;;;;;;;11.75;9.90;;;24.70;53.60;;;;;;5096987;28;20188;-81
2021/07/17 07:49:37;;;;;;;11.85;9.75;;;24.70;53.60;;;;;;5096670;28;20149;-84
2021/07/17 07:52:05;;;;;;;12.35;9.90;;;24.70;53.60;;;;;;5079011;28;20180;-82
2021/07/17 07:54:32;;;;;;;11.93;9.77;;;24.80;53.50;;;;;;5079213;28;20271;-80
2021/07/17 07:57:00;;;;;;;11.85;9.98;;;24.70;53.50;;;;;;5045879;28;20187;-81
2021/07/17 07:59:27;;;;;;;12.05;9.70;;;24.60;53.90;;;;;;5045999;28;20301;-81
2021/07/17 08:01:55;;;;;;;12.13;9.98;;;24.70;53.70;;;;;;5078698;28;20651;-81
2021/07/17 08:04:22;;;;;;;12.63;10.27;;;24.70;53.50;;;;;;5062106;28;20192;-81
2021/07/17 08:06:48;;;;;;;12.23;9.65;;;24.70;53.80;;;;;;5095275;28;20212;-80
2021/07/17 08:09:13;;;;;;;12.38;10.40;;;24.70;53.60;;;;;;5095545;28;20568;-82
2021/07/17 08:11:39;;;;;;;13.18;10.50;;;24.60;53.80;;;;;;5078357;28;20619;-81
2021/07/17 08:14:06;;;;;;;11.35;9.57;;;24.50;54.00;;;;;;5095153;28;20174;-81
2021/07/17 08:16:31;;;;;;;12.07;9.73;;;24.50;54.10;;;;;;5095341;28;20153;-83
2021/07/17 08:18:57;;;;;;;11.70;9.50;;;24.50;54.10;;;;;;5112139;28;20636;-83
2021/07/17 08:21:27;;;;;;;12.15;9.70;;;24.60;54.00;;;;;;5094790;28;20153;-84
2021/07/17 08:23:57;;;;;;;11.43;9.38;;;24.70;53.70;;;;;;5077182;28;20173;-83
2021/07/17 08:26:26;;;;;;;11.43;9.38;;;24.70;54.30;;;;;;5060594;28;20177;-84
2021/07/17 08:28:53;;;;;;;11.68;9.77;;;24.80;53.50;;;;;;5060240;28;20612;-84
2021/07/17 08:31:20;;;;;;;11.85;9.90;;;24.80;53.60;;;;;;5093824;27;20181;-81
2021/07/17 08:33:46;;;;;;;11.55;10.15;;;24.90;53.50;;;;;;5095827;28;20210;-82
2021/07/17 08:36:11;;;;;;;12.38;10.20;;;24.80;53.40;;;;;;5094568;28;20157;-81
2021/07/17 08:38:38;;;;;;;12.63;10.10;;;24.90;53.40;;;;;;5077449;28;20169;-80
2021/07/17 08:41:04;;;;;;;12.85;10.18;;;25.00;53.30;;;;;;5094370;28;20199;-81
2021/07/17 08:43:30;;;;;;;11.85;9.63;;;24.90;53.30;;;;;;5078185;28;20474;-83
2021/07/17 08:45:55;;;;;;;12.30;9.95;;;25.00;54.00;;;;;;5094810;28;20145;-81
2021/07/17 08:48:21;;;;;;;11.45;9.70;;;24.90;53.30;;;;;;5094174;28;20227;-82
2021/07/17 08:50:48;;;;;;;12.70;10.40;;;24.90;53.40;;;;;;5094627;28;20160;-84
2021/07/17 08:53:16;;;;;;;11.80;10.02;;;24.90;53.20;;;;;;5111282;28;20702;-85
2021/07/17 08:55:42;;;;;;;11.65;9.68;;;24.90;53.30;;;;;;5094341;28;20263;-83
2021/07/17 08:58:08;;;;;;;11.70;9.98;;;24.80;53.50;;;;;;5077159;28;20314;-84
2021/07/17 09:00:40;;;;;;;13.63;10.82;;;24.80;53.50;;;;;;5093913;28;20662;-83
2021/07/17 09:03:11;;;;;;;11.88;9.40;;;24.90;53.50;;;;;;5043338;28;20184;-82
2021/07/17 09:05:45;;;;;;;11.95;9.95;;;24.90;53.50;;;;;;5077155;28;20185;-83
2021/07/17 09:08:15;;;;;;;11.70;9.68;;;24.90;53.50;;;;;;5061680;28;20231;-84
2021/07/17 09:10:49;;;;;;;11.20;9.32;;;24.80;53.60;;;;;;5094081;27;20181;-82
2021/07/17 09:13:24;;;;;;;11.55;9.57;;;24.80;53.60;;;;;;5093728;28;20191;-81
2021/07/17 09:16:04;;;;;;;12.63;10.23;;;24.90;53.60;;;;;;5060034;28;20180;-82
2021/07/17 09:18:46;;;;;;;12.10;10.07;;;24.80;53.60;;;;;;5029653;28;20184;-81
2021/07/17 09:21:36;;;;;;;12.63;10.32;;;24.80;53.80;;;;;;5045583;28;20230;-83
2021/07/17 09:24:08;;;;;;;12.32;9.98;;;24.70;53.80;;;;;;5077691;28;20252;-83
2021/07/17 09:26:37;;;;;;;12.88;9.73;;;24.80;53.80;;;;;;5060188;28;20607;-82
2021/07/17 09:29:07;;;;;;;12.70;10.23;;;24.80;53.90;;;;;;5076712;27;20184;-84
2021/07/17 09:31:38;;;;;;;10.82;9.40;;;24.80;53.90;;;;;;5059774;28;20184;-84
2021/07/17 09:34:09;;;;;;;12.30;10.57;;;24.80;53.90;;;;;;5076392;28;20184;-83
2021/07/17 09:36:48;;;;;;;11.13;9.60;;;24.70;53.90;;;;;;5043249;28;20177;-83
2021/07/17 09:39:19;;;;;;;12.68;10.10;;;24.70;53.90;;;;;;5063184;28;20184;-81
2021/07/17 09:41:55;;;;;;;11.52;9.70;;;24.80;54.00;;;;;;5042885;28;20203;-81
2021/07/17 09:44:26;;;;;;;12.50;9.75;;;24.70;54.00;;;;;;5075843;27;20172;-82
2021/07/17 09:46:57;;;;;;;12.30;9.55;;;24.70;54.20;;;;;;5058988;28;20305;-84
2021/07/17 09:49:26;;;;;;;12.25;9.93;;;24.70;54.10;;;;;;5042626;28;20181;-81
2021/07/17 09:52:14;;;;;;;11.20;9.80;;;24.80;54.10;;;;;;5075774;28;20194;-83
2021/07/17 09:54:59;;;;;;;12.23;9.98;;;24.60;54.20;;;;;;5077289;28;20594;-83
2021/07/17 09:57:32;;;;;;;11.93;10.00;;;24.60;55.00;;;;;;5067637;28;20195;-82
2021/07/17 10:00:11;;;;;;;12.25;9.93;;;24.60;54.30;;;;;;5044901;28;20598;-82
2021/07/17 10:02:41;;;;;;;11.23;9.25;;;24.70;54.60;;;;;;5095375;28;20171;-81
2021/07/17 10:05:09;;;;;;;12.05;10.30;;;24.60;54.60;;;;;;5078313;28;20188;-80
2021/07/17 10:07:36;;;;;;;11.32;9.45;;;24.70;54.50;;;;;;5096093;28;20196;-83
2021/07/17 10:10:02;;;;;;;10.73;9.50;;;24.60;54.40;;;;;;5095890;28;20161;-82
2021/07/17 10:12:39;;;;;;;12.38;10.00;;;24.60;54.40;;;;;;5080127;28;20163;-83
2021/07/17 10:15:15;;;;;;;11.55;9.68;;;24.70;54.40;;;;;;5065396;28;20237;-84
2021/07/17 10:17:41;;;;;;;11.05;9.63;;;24.60;54.40;;;;;;5098079;28;20161;-81
2021/07/17 10:20:12;;;;;;;11.43;9.50;;;24.50;55.20;;;;;;5077277;28;20226;-84
2021/07/17 10:22:40;;;;;;;11.55;10.10;;;24.60;54.60;;;;;;5076683;27;20176;-83
2021/07/17 10:25:06;;;;;;;11.95;9.52;;;24.70;54.50;;;;;;5094304;28;20164;-83
2021/07/17 10:27:33;;;;;;;12.00;10.10;;;24.60;54.50;;;;;;5093371;28;20207;-84
2021/07/17 10:29:59;;;;;;;12.77;10.30;;;24.60;54.60;;;;;;5110761;28;20639;-81
2021/07/17 10:32:24;;;;;;;11.02;9.55;;;24.60;54.60;;;;;;5076045;28;20153;-81
2021/07/17 10:34:52;;;;;;;11.70;9.77;;;24.60;54.60;;;;;;5076869;28;20164;-83
2021/07/17 10:37:19;;;;;;;11.70;9.80;;;24.60;54.70;;;;;;5093573;28;20171;-84
2021/07/17 10:39:50;;;;;;;11.63;9.60;;;24.60;54.70;;;;;;5076639;28;20152;-84
2021/07/17 10:42:20;;;;;;;12.75;9.95;;;24.60;54.70;;;;;;5077259;28;20156;-81
2021/07/17 10:44:51;;;;;;;11.57;9.55;;;24.60;54.70;;;;;;5076261;28;20153;-81
2021/07/17 10:47:17;;;;;;;12.18;9.85;;;24.60;54.70;;;;;;5109891;28;20265;-81
2021/07/17 10:49:48;;;;;;;12.02;9.93;;;24.60;54.70;;;;;;5075369;28;20657;-81
2021/07/17 10:52:13;;;;;;;11.98;9.95;;;24.60;54.80;;;;;;5110519;28;20149;-82
2021/07/17 10:54:40;;;;;;;12.35;10.38;;;24.60;54.70;;;;;;5076743;28;20161;-83
2021/07/17 10:57:07;;;;;;;12.02;10.05;;;24.60;54.60;;;;;;5093119;28;20165;-80
2021/07/17 10:59:40;;;;;;;11.43;9.52;;;24.60;54.70;;;;;;5110358;28;20563;-85
2021/07/17 11:02:10;;;;;;;12.45;9.65;;;24.60;54.90;;;;;;5059401;28;20215;-82
2021/07/17 11:04:54;;;;;;;11.75;9.95;;;24.60;54.80;;;;;;5059764;28;20177;-82
2021/07/17 11:07:29;;;;;;;12.40;9.70;;;24.60;54.80;;;;;;5062212;28;20219;-82
2021/07/17 11:10:00;;;;;;;11.50;9.35;;;24.60;54.80;;;;;;5092581;28;20207;-81
2021/07/17 11:12:31;;;;;;;10.68;9.35;;;24.50;55.00;;;;;;5059960;28;20172;-84
2021/07/17 11:15:37;;;;;;;11.85;10.00;;;24.60;55.00;;;;;;5063731;28;20194;-83
2021/07/17 11:18:23;;;;;;;11.77;9.85;;;24.50;55.00;;;;;;5085308;28;20175;-84
2021/07/17 11:20:48;;;;;;;11.82;10.15;;;24.50;55.10;;;;;;5097295;28;20178;-84
2021/07/17 11:23:19;;;;;;;12.25;10.60;;;24.50;55.00;;;;;;5079916;28;20252;-81
2021/07/17 11:26:03;;;;;;;10.70;9.55;;;24.50;55.10;;;;;;5045724;28;20188;-80
2021/07/17 11:28:47;;;;;;;13.27;10.10;;;24.60;55.00;;;;;;5113950;28;20299;-82
2021/07/17 11:31:44;;;;;;;10.43;9.32;;;24.60;55.10;;;;;;5097527;28;20191;-83
2021/07/17 11:34:32;;;;;;;12.05;9.80;;;24.60;54.90;;;;;;5082094;28;20197;-82
2021/07/17 11:37:06;;;;;;;12.00;9.95;;;24.60;54.90;;;;;;5080000;28;20169;-84
2021/07/17 11:39:40;;;;;;;11.63;9.52;;;24.60;54.90;;;;;;5063186;28;20183;-83
2021/07/17 11:42:10;;;;;;;12.23;9.90;;;24.70;55.10;;;;;;5096611;28;20153;-82
2021/07/17 11:44:41;;;;;;;12.07;10.05;;;24.60;55.10;;;;;;5079185;28;20181;-85
2021/07/17 11:47:09;;;;;;;11.63;9.85;;;24.60;55.10;;;;;;5079365;28;20299;-80
2021/07/17 11:49:38;;;;;;;12.13;9.98;;;24.50;55.70;;;;;;5080195;28;20187;-81
2021/07/17 11:52:05;;;;;;;12.13;9.65;;;24.50;55.10;;;;;;5080299;28;20160;-82
2021/07/17 11:54:38;;;;;;;12.35;10.18;;;24.60;55.10;;;;;;5079122;28;20207;-83
2021/07/17 11:57:11;;;;;;;11.98;9.85;;;24.50;55.10;;;;;;5045661;28;20199;-83
2021/07/17 11:59:38;;;;;;;12.02;9.38;;;24.50;55.30;;;;;;5114678;28;20607;-81
2021/07/17 12:02:17;;;;;;;12.50;10.20;;;24.50;55.30;;;;;;5095866;28;20157;-82
2021/07/17 12:04:48;;;;;;;12.27;9.95;;;24.50;55.40;;;;;;5045327;28;20187;-82
2021/07/17 12:07:16;;;;;;;11.13;9.32;;;24.50;55.30;;;;;;5078599;28;20188;-81
2021/07/17 12:09:44;;;;;;;12.32;10.05;;;24.50;55.30;;;;;;5078676;28;20157;-84
2021/07/17 12:12:27;;;;;;;11.70;9.80;;;24.50;55.40;;;;;;5113240;28;20149;-81
2021/07/17 12:15:04;;;;;;;11.23;9.80;;;24.50;56.10;;;;;;5096634;28;20488;-84
2021/07/17 12:17:29;;;;;;;11.27;9.68;;;24.50;55.30;;;;;;5080114;28;20171;-85
2021/07/17 12:20:08;;;;;;;11.65;9.63;;;24.50;55.40;;;;;;5079689;28;20164;-82
2021/07/17 12:22:34;;;;;;;12.30;10.00;;;24.50;55.50;;;;;;5096237;28;20247;-83
2021/07/17 12:25:06;;;;;;;12.18;10.02;;;24.50;55.30;;;;;;5113780;28;20195;-83
2021/07/17 12:27:31;;;;;;;12.27;9.95;;;24.50;55.40;;;;;;5096024;28;20192;-84
2021/07/17 12:29:57;;;;;;;12.40;10.27;;;24.50;55.50;;;;;;5095629;28;20151;-84
2021/07/17 12:32:23;;;;;;;11.00;9.40;;;24.50;56.10;;;;;;5097467;28;20161;-84
2021/07/17 12:34:55;;;;;;;12.35;9.50;;;24.50;55.50;;;;;;5080194;28;20157;-85
2021/07/17 12:37:26;;;;;;;13.00;10.18;;;24.50;55.50;;;;;;5095707;28;20608;-84
2021/07/17 12:40:09;;;;;;;11.45;9.18;;;24.50;55.50;;;;;;5095989;28;20153;-82